Time;durP1;ratioP1;P1;durP2;ratioP2;P2;SDS_P1;SDS_P2;PMS_P1;PMS_P2;Temp;Humidity;BMP_temperature;BMP_pressure;BME280_temperature;BME280_humidity;BME280_pressure;Samples;Min_cycle;Max_cycle;Signal;HPM_P1;HPM_P2
2021/09/18 00:02:38;;;;;;;;;;;22.70;47.80;;;;;;8367691;28;20297;-48
2021/09/18 00:06:38;;;;;;;;;;;22.70;47.80;;;;;;8367336;28;19913;-48
2021/09/18 00:10:39;;;;;;;;;;;22.60;47.80;;;;;;8367042;28;19999;-47
2021/09/18 00:14:39;;;;;;;;;;;22.60;47.70;;;;;;8367798;28;20297;-47
2021/09/18 00:18:40;;;;;;;;;;;22.60;47.70;;;;;;8366240;28;19917;-48
2021/09/18 00:22:40;;;;;;;;;;;22.60;47.80;;;;;;8366294;28;19931;-47
2021/09/18 00:26:41;;;;;;;;;;;22.60;47.80;;;;;;8366608;28;20282;-47
2021/09/18 00:30:41;;;;;;;;;;;22.60;47.80;;;;;;8366428;28;20431;-47
2021/09/18 00:34:42;;;;;;;;;;;22.60;47.80;;;;;;8366738;28;19916;-48
2021/09/18 00:38:43;;;;;;;;;;;22.60;47.70;;;;;;8366190;28;19936;-48
2021/09/18 00:42:43;;;;;;;;;;;22.50;47.70;;;;;;8366155;28;19921;-50
2021/09/18 00:46:45;;;;;;;;;;;22.60;47.80;;;;;;8365661;28;19974;-51
2021/09/18 00:50:45;;;;;;;;;;;22.50;47.70;;;;;;8366947;28;19912;-51
2021/09/18 00:54:47;;;;;;;;;;;22.50;47.70;;;;;;8365786;28;19995;-49
2021/09/18 00:58:47;;;;;;;;;;;22.60;47.80;;;;;;8365182;28;19921;-50
2021/09/18 01:02:47;;;;;;;;;;;22.50;47.70;;;;;;8365278;28;19975;-48
2021/09/18 01:06:48;;;;;;;;;;;22.50;47.70;;;;;;8366067;28;19917;-48
2021/09/18 01:10:49;;;;;;;;;;;22.50;47.70;;;;;;8364926;28;19921;-47
2021/09/18 01:14:49;;;;;;;;;;;22.50;47.70;;;;;;8365334;28;20444;-48
2021/09/18 01:18:50;;;;;;;;;;;22.50;47.70;;;;;;8365044;28;19912;-48
2021/09/18 01:22:51;;;;;;;;;;;22.50;47.70;;;;;;8364214;28;19925;-48
2021/09/18 01:26:52;;;;;;;;;;;22.50;47.70;;;;;;8365281;28;20374;-49
2021/09/18 01:30:52;;;;;;;;;;;22.50;47.70;;;;;;8363681;28;19916;-51
2021/09/18 01:34:53;;;;;;;;;;;22.50;47.80;;;;;;8364192;28;19969;-49
2021/09/18 01:38:53;;;;;;;;;;;22.40;47.70;;;;;;8364206;28;19916;-50
2021/09/18 01:42:54;;;;;;;;;;;22.40;47.60;;;;;;8365034;28;19928;-48
2021/09/18 01:46:55;;;;;;;;;;;22.40;47.60;;;;;;8363663;28;19920;-48
2021/09/18 01:50:59;;;;;;;;;;;22.40;47.60;;;;;;8363990;28;19923;-48
2021/09/18 01:54:59;;;;;;;;;;;22.40;47.60;;;;;;8363663;28;20425;-48
2021/09/18 01:58:59;;;;;;;;;;;22.40;47.60;;;;;;8363879;28;19967;-48
2021/09/18 02:03:00;;;;;;;;;;;22.40;47.60;;;;;;8364578;28;19962;-53
2021/09/18 02:07:00;;;;;;;;;;;22.40;47.60;;;;;;8363054;28;19916;-49
2021/09/18 02:11:01;;;;;;;;;;;22.40;47.60;;;;;;8363281;28;19955;-51
2021/09/18 02:15:02;;;;;;;;;;;22.30;47.60;;;;;;8363746;28;19912;-49
2021/09/18 02:19:02;;;;;;;;;;;22.30;47.60;;;;;;8363714;28;19924;-49
2021/09/18 02:23:03;;;;;;;;;;;22.30;47.60;;;;;;8363173;28;20274;-48
2021/09/18 02:27:04;;;;;;;;;;;22.30;47.60;;;;;;8363278;28;20431;-49
2021/09/18 02:31:04;;;;;;;;;;;22.30;47.60;;;;;;8384451;28;19927;-49
2021/09/18 02:35:07;;;;;;;;;;;22.30;47.60;;;;;;8364057;28;19913;-52
2021/09/18 02:39:07;;;;;;;;;;;22.30;47.50;;;;;;8363378;28;20285;-49
2021/09/18 02:43:08;;;;;;;;;;;22.30;47.60;;;;;;8366129;28;20011;-50
2021/09/18 02:47:08;;;;;;;;;;;22.30;47.60;;;;;;8369817;28;20354;-49
2021/09/18 02:51:09;;;;;;;;;;;22.30;47.60;;;;;;8369635;28;19967;-48
2021/09/18 02:55:10;;;;;;;;;;;22.20;47.50;;;;;;8369804;28;19923;-50
2021/09/18 02:59:10;;;;;;;;;;;22.20;47.50;;;;;;8369513;28;19916;-51
2021/09/18 03:03:11;;;;;;;;;;;22.20;47.50;;;;;;8369247;28;20000;-51
2021/09/18 03:07:11;;;;;;;;;;;22.20;47.50;;;;;;8368441;28;19923;-50
2021/09/18 03:11:12;;;;;;;;;;;22.20;47.50;;;;;;8369909;28;19928;-49
2021/09/18 03:15:12;;;;;;;;;;;22.20;47.60;;;;;;8368910;28;19970;-50
2021/09/18 03:19:13;;;;;;;;;;;22.20;47.50;;;;;;8368775;28;20431;-52
2021/09/18 03:23:13;;;;;;;;;;;22.20;47.50;;;;;;8368529;28;19920;-51
2021/09/18 03:27:14;;;;;;;;;;;22.20;47.50;;;;;;8369402;28;19927;-53
2021/09/18 03:31:17;;;;;;;;;;;22.20;47.50;;;;;;8368025;28;20054;-49
2021/09/18 03:35:17;;;;;;;;;;;22.10;47.50;;;;;;8368640;28;19917;-49
2021/09/18 03:39:18;;;;;;;;;;;22.20;47.50;;;;;;8368073;28;19958;-49
2021/09/18 03:43:18;;;;;;;;;;;22.10;47.40;;;;;;8367412;28;19924;-49
2021/09/18 03:47:19;;;;;;;;;;;22.10;47.40;;;;;;8368585;28;19921;-49
2021/09/18 03:51:19;;;;;;;;;;;22.10;47.40;;;;;;8367891;28;20397;-49
2021/09/18 03:55:20;;;;;;;;;;;22.10;47.50;;;;;;8365913;28;19924;-49
2021/09/18 03:59:21;;;;;;;;;;;22.10;47.50;;;;;;8367673;28;19913;-48
2021/09/18 04:03:22;;;;;;;;;;;22.10;47.40;;;;;;8368173;28;19932;-48
2021/09/18 04:07:22;;;;;;;;;;;22.10;47.50;;;;;;8366907;28;19917;-48
2021/09/18 04:11:23;;;;;;;;;;;22.10;47.40;;;;;;8367156;28;19921;-48
2021/09/18 04:15:23;;;;;;;;;;;22.00;47.40;;;;;;8366914;28;19920;-48
2021/09/18 04:19:24;;;;;;;;;;;22.00;47.40;;;;;;8366686;28;20027;-50
2021/09/18 04:23:24;;;;;;;;;;;22.00;47.40;;;;;;8367585;28;20062;-49
2021/09/18 04:27:24;;;;;;;;;;;22.00;47.40;;;;;;8366697;28;19935;-48
2021/09/18 04:31:25;;;;;;;;;;;22.00;47.40;;;;;;8366315;28;19917;-48
2021/09/18 04:35:26;;;;;;;;;;;22.00;47.50;;;;;;8366338;28;19921;-48
2021/09/18 04:39:26;;;;;;;;;;;22.00;47.40;;;;;;8367060;28;19916;-48
2021/09/18 04:43:27;;;;;;;;;;;22.00;47.40;;;;;;8365848;28;19982;-50
2021/09/18 04:47:27;;;;;;;;;;;21.90;47.40;;;;;;8366125;28;19921;-49
2021/09/18 04:51:27;;;;;;;;;;;21.90;47.40;;;;;;8365957;28;19924;-50
2021/09/18 04:55:28;;;;;;;;;;;21.90;47.40;;;;;;8366090;28;19936;-49
2021/09/18 04:59:28;;;;;;;;;;;21.90;47.40;;;;;;8365695;28;20365;-49
2021/09/18 05:03:29;;;;;;;;;;;21.90;47.40;;;;;;8365329;28;19947;-48
2021/09/18 05:07:29;;;;;;;;;;;21.90;47.40;;;;;;8364736;28;19959;-48
2021/09/18 05:11:30;;;;;;;;;;;21.90;47.40;;;;;;8365164;28;20366;-48
2021/09/18 05:15:30;;;;;;;;;;;21.90;47.30;;;;;;8365669;28;20003;-49
2021/09/18 05:19:31;;;;;;;;;;;21.90;47.40;;;;;;8364733;28;19917;-48
2021/09/18 05:23:31;;;;;;;;;;;21.90;47.30;;;;;;8365078;28;20006;-48
2021/09/18 05:27:32;;;;;;;;;;;21.90;47.30;;;;;;8364591;28;19940;-49
2021/09/18 05:31:32;;;;;;;;;;;21.80;47.30;;;;;;8364955;28;19916;-49
2021/09/18 05:35:33;;;;;;;;;;;21.80;47.30;;;;;;8364712;28;19916;-49
2021/09/18 05:39:33;;;;;;;;;;;21.80;47.30;;;;;;8364470;28;19913;-47
2021/09/18 05:43:34;;;;;;;;;;;21.80;47.20;;;;;;8363721;28;19925;-49
2021/09/18 05:47:34;;;;;;;;;;;21.80;47.80;;;;;;8365111;28;20282;-49
2021/09/18 05:51:35;;;;;;;;;;;21.80;47.30;;;;;;8364107;28;19928;-49
2021/09/18 05:55:35;;;;;;;;;;;21.80;47.30;;;;;;8363356;28;20003;-49
2021/09/18 05:59:35;;;;;;;;;;;21.80;47.30;;;;;;8363797;28;19920;-48
2021/09/18 06:03:36;;;;;;;;;;;21.80;47.30;;;;;;8363690;28;19935;-48
2021/09/18 06:07:36;;;;;;;;;;;21.80;47.30;;;;;;8363976;28;20039;-51
2021/09/18 06:11:37;;;;;;;;;;;21.80;47.20;;;;;;8363852;28;19929;-49
2021/09/18 06:15:38;;;;;;;;;;;21.80;47.20;;;;;;8363368;28;19912;-47
2021/09/18 06:19:38;;;;;;;;;;;21.80;47.10;;;;;;8362624;28;19923;-52
2021/09/18 06:23:40;;;;;;;;;;;21.90;46.90;;;;;;8363937;28;19967;-50
2021/09/18 06:27:41;;;;;;;;;;;22.10;46.60;;;;;;8363038;28;19921;-51
2021/09/18 06:31:41;;;;;;;;;;;22.20;46.30;;;;;;8363072;28;19921;-49
2021/09/18 06:35:42;;;;;;;;;;;22.30;46.10;;;;;;8363081;28;19913;-50
2021/09/18 06:39:42;;;;;;;;;;;22.30;46.00;;;;;;8363584;28;19916;-49
2021/09/18 06:43:43;;;;;;;;;;;22.20;46.10;;;;;;8362579;28;19931;-48
2021/09/18 06:47:43;;;;;;;;;;;22.10;46.20;;;;;;8363030;28;19917;-51
2021/09/18 06:51:44;;;;;;;;;;;22.10;46.40;;;;;;8362696;28;20004;-49
2021/09/18 06:55:44;;;;;;;;;;;22.00;46.50;;;;;;8362481;28;19921;-52
2021/09/18 06:59:45;;;;;;;;;;;22.00;46.60;;;;;;8363752;28;19924;-50
2021/09/18 07:03:45;;;;;;;;;;;21.90;46.70;;;;;;8362555;28;19940;-49
2021/09/18 07:07:45;;;;;;;;;;;21.90;46.70;;;;;;8362007;28;19924;-49
2021/09/18 07:11:46;;;;;;;;;;;21.90;46.80;;;;;;8362708;28;20292;-49
2021/09/18 07:15:46;;;;;;;;;;;21.90;46.90;;;;;;8363201;28;19958;-48
2021/09/18 07:19:47;;;;;;;;;;;21.90;46.90;;;;;;8361992;28;19923;-51
2021/09/18 07:23:47;;;;;;;;;;;21.80;46.90;;;;;;8362548;28;20456;-48
2021/09/18 07:27:48;;;;;;;;;;;21.80;47.00;;;;;;8363553;28;19924;-50
2021/09/18 07:31:48;;;;;;;;;;;21.90;46.90;;;;;;8368228;28;19913;-49
2021/09/18 07:35:49;;;;;;;;;;;21.80;46.90;;;;;;8369041;28;19927;-50
2021/09/18 07:39:49;;;;;;;;;;;21.80;46.90;;;;;;8368244;28;19923;-49
2021/09/18 07:43:49;;;;;;;;;;;21.90;47.00;;;;;;8367665;28;19948;-48
2021/09/18 07:47:50;;;;;;;;;;;21.80;47.00;;;;;;8368266;28;20028;-48
2021/09/18 07:51:50;;;;;;;;;;;21.80;47.00;;;;;;8368535;28;20378;-50
2021/09/18 07:55:51;;;;;;;;;;;21.80;47.10;;;;;;8367255;28;19916;-49
2021/09/18 07:59:52;;;;;;;;;;;21.80;47.20;;;;;;8367762;28;20066;-48
2021/09/18 08:03:58;;;;;;;;;;;21.80;47.20;;;;;;8367475;28;20341;-52
2021/09/18 08:07:59;;;;;;;;;;;21.80;47.20;;;;;;8367740;28;20401;-52
2021/09/18 08:12:00;;;;;;;;;;;21.80;47.20;;;;;;8367571;28;20008;-51
2021/09/18 08:16:00;;;;;;;;;;;21.80;47.20;;;;;;8366639;28;19913;-51
2021/09/18 08:20:01;;;;;;;;;;;21.80;47.20;;;;;;8367053;28;19966;-50
2021/09/18 08:24:01;;;;;;;;;;;21.80;47.20;;;;;;8366683;28;19920;-49
2021/09/18 08:28:02;;;;;;;;;;;21.80;47.30;;;;;;8367091;28;20389;-48
2021/09/18 08:32:02;;;;;;;;;;;21.80;47.30;;;;;;8366871;28;19921;-49
2021/09/18 08:36:03;;;;;;;;;;;21.80;47.40;;;;;;8366674;28;19913;-48
2021/09/18 08:40:05;;;;;;;;;;;21.80;47.30;;;;;;8365669;28;19917;-47
2021/09/18 08:44:05;;;;;;;;;;;21.80;47.30;;;;;;8367030;28;19921;-48
2021/09/18 08:48:06;;;;;;;;;;;21.80;47.30;;;;;;8366244;28;19917;-47
2021/09/18 08:52:07;;;;;;;;;;;21.80;47.30;;;;;;8365616;28;19920;-47
2021/09/18 08:56:07;;;;;;;;;;;21.80;47.30;;;;;;8366006;28;20262;-50
2021/09/18 09:00:09;;;;;;;;;;;21.80;47.30;;;;;;8366120;28;19952;-48
2021/09/18 09:04:10;;;;;;;;;;;21.90;47.40;;;;;;8398476;28;19948;-48
2021/09/18 09:08:17;;;;;;;;;;;21.80;47.30;;;;;;8398895;28;19970;-49
2021/09/18 09:12:25;;;;;;;;;;;21.90;47.40;;;;;;8398453;28;19920;-48
2021/09/18 09:16:27;;;;;;;;;;;21.90;47.90;;;;;;8397887;28;19993;-48
2021/09/18 09:20:27;;;;;;;;;;;21.90;47.40;;;;;;8398782;28;19923;-48
2021/09/18 09:24:29;;;;;;;;;;;21.90;47.40;;;;;;8397728;28;20373;-49
2021/09/18 09:28:32;;;;;;;;;;;21.90;47.40;;;;;;8397507;28;19923;-49
2021/09/18 09:32:32;;;;;;;;;;;21.90;47.40;;;;;;8397718;28;19917;-48
2021/09/18 09:36:37;;;;;;;;;;;21.90;47.40;;;;;;8398258;28;19997;-49
2021/09/18 09:40:39;;;;;;;;;;;22.00;47.50;;;;;;8397682;28;19913;-52
2021/09/18 09:44:40;;;;;;;;;;;22.00;47.40;;;;;;8397386;28;19943;-47
2021/09/18 09:48:40;;;;;;;;;;;22.00;47.40;;;;;;8397079;28;19916;-51
2021/09/18 09:52:42;;;;;;;;;;;22.00;47.40;;;;;;8395954;28;19917;-48
2021/09/18 09:56:42;;;;;;;;;;;22.00;47.40;;;;;;8398067;28;19920;-49
2021/09/18 10:00:46;;;;;;;;;;;22.00;47.40;;;;;;8397028;28;20368;-50
2021/09/18 10:04:47;;;;;;;;;;;22.00;47.40;;;;;;8396769;28;19947;-52
2021/09/18 10:08:49;;;;;;;;;;;22.10;47.40;;;;;;8396987;28;19929;-48
2021/09/18 10:12:49;;;;;;;;;;;22.10;47.40;;;;;;8397561;28;19912;-48
2021/09/18 10:16:51;;;;;;;;;;;22.10;47.40;;;;;;8396195;28;19916;-52
2021/09/18 10:24:55;;;;;;;;;;;22.20;47.90;;;;;;8397064;28;19931;-49
2021/09/18 10:29:00;;;;;;;;;;;22.20;47.30;;;;;;8395800;28;19925;-49
2021/09/18 10:33:02;;;;;;;;;;;22.20;47.30;;;;;;8400262;28;19913;-48
2021/09/18 10:37:03;;;;;;;;;;;22.20;47.30;;;;;;8395890;28;20373;-48
2021/09/18 10:41:09;;;;;;;;;;;22.30;47.30;;;;;;8396495;28;19963;-51
2021/09/18 10:45:11;;;;;;;;;;;22.30;47.30;;;;;;8396188;28;20423;-48
2021/09/18 10:49:30;;;;;;;;;;;22.30;47.30;;;;;;8396703;28;20446;-48
2021/09/18 10:53:50;;;;;;;;;;;22.30;47.30;;;;;;8396750;28;19943;-50
2021/09/18 10:57:51;;;;;;;;;;;22.30;47.30;;;;;;8395947;28;19916;-48
2021/09/18 11:01:51;;;;;;;;;;;22.30;47.30;;;;;;8395225;28;20466;-50
2021/09/18 11:05:52;;;;;;;;;;;22.30;47.30;;;;;;8402245;28;20312;-47
2021/09/18 11:09:52;;;;;;;;;;;22.30;47.30;;;;;;8403458;28;20430;-49
2021/09/18 11:13:55;;;;;;;;;;;22.30;47.30;;;;;;8401680;28;19999;-49
2021/09/18 11:17:56;;;;;;;;;;;22.30;47.30;;;;;;8402194;28;19923;-49
2021/09/18 11:22:10;;;;;;;;;;;22.40;47.30;;;;;;8401836;28;19924;-49
2021/09/18 11:26:31;;;;;;;;;;;22.40;47.30;;;;;;8402648;28;19983;-48
2021/09/18 11:30:42;;;;;;;;;;;22.40;47.30;;;;;;8402515;28;19919;-47
2021/09/18 11:34:43;;;;;;;;;;;22.40;47.20;;;;;;8401503;28;19941;-48
2021/09/18 11:38:44;;;;;;;;;;;22.40;47.20;;;;;;8401289;28;20411;-48
2021/09/18 11:42:44;;;;;;;;;;;22.50;47.20;;;;;;8400207;28;20289;-50
2021/09/18 11:46:45;;;;;;;;;;;22.50;47.20;;;;;;8400703;28;19916;-49
2021/09/18 11:50:45;;;;;;;;;;;22.50;47.30;;;;;;8401817;28;20356;-51
2021/09/18 11:54:45;;;;;;;;;;;22.50;47.30;;;;;;8400913;28;19917;-50
2021/09/18 11:58:46;;;;;;;;;;;22.50;47.30;;;;;;8400264;28;19917;-50
2021/09/18 12:02:46;;;;;;;;;;;22.50;47.30;;;;;;8400222;28;19924;-51
2021/09/18 12:06:47;;;;;;;;;;;22.50;47.30;;;;;;8400932;28;20003;-50
2021/09/18 12:10:48;;;;;;;;;;;22.50;47.30;;;;;;8400033;28;19920;-49
2021/09/18 12:14:52;;;;;;;;;;;22.50;47.30;;;;;;8399181;28;20305;-48
2021/09/18 12:18:57;;;;;;;;;;;22.50;47.30;;;;;;8398857;28;21295;-51
2021/09/18 12:22:57;;;;;;;;;;;22.50;47.30;;;;;;8399456;28;20384;-48
2021/09/18 12:26:58;;;;;;;;;;;22.50;47.30;;;;;;8399968;28;19996;-50
2021/09/18 12:31:00;;;;;;;;;;;22.60;47.30;;;;;;8398738;28;19916;-48
2021/09/18 12:35:07;;;;;;;;;;;22.50;47.30;;;;;;8399453;28;19995;-52
2021/09/18 12:39:08;;;;;;;;;;;22.60;47.30;;;;;;8398678;28;19923;-49
2021/09/18 12:43:10;;;;;;;;;;;22.60;47.30;;;;;;8399419;28;19921;-48
2021/09/18 12:47:21;;;;;;;;;;;22.60;47.30;;;;;;8399059;28;20270;-50
2021/09/18 12:51:21;;;;;;;;;;;22.60;47.30;;;;;;8399250;28;20374;-50
2021/09/18 12:55:22;;;;;;;;;;;22.60;47.30;;;;;;8398571;28;19974;-49
2021/09/18 12:59:23;;;;;;;;;;;22.60;47.30;;;;;;8399806;28;19955;-49
2021/09/18 13:03:23;;;;;;;;;;;22.60;47.20;;;;;;8399101;28;19927;-52
2021/09/18 13:07:25;;;;;;;;;;;22.70;47.30;;;;;;8398109;28;19917;-51
2021/09/18 13:11:27;;;;;;;;;;;22.70;47.30;;;;;;8398675;28;19994;-49
2021/09/18 13:15:30;;;;;;;;;;;22.70;47.20;;;;;;8398194;28;20057;-49
2021/09/18 13:19:50;;;;;;;;;;;22.70;47.20;;;;;;8398586;28;19917;-48
2021/09/18 13:23:50;;;;;;;;;;;22.70;47.20;;;;;;8397975;28;20437;-48
2021/09/18 13:27:50;;;;;;;;;;;22.70;47.20;;;;;;8397563;28;19912;-48
2021/09/18 13:31:51;;;;;;;;;;;22.70;47.20;;;;;;8397326;28;20011;-49
2021/09/18 13:35:52;;;;;;;;;;;22.70;47.20;;;;;;8397756;28;19916;-49
2021/09/18 13:39:52;;;;;;;;;;;22.80;47.30;;;;;;8398297;28;19928;-48
2021/09/18 13:43:53;;;;;;;;;;;22.80;47.30;;;;;;8396997;28;19924;-51
2021/09/18 13:47:53;;;;;;;;;;;22.70;47.20;;;;;;8397655;28;19923;-49
2021/09/18 13:51:54;;;;;;;;;;;22.80;47.20;;;;;;8397426;28;19921;-51
2021/09/18 13:55:55;;;;;;;;;;;22.80;47.20;;;;;;8397600;28;19913;-49
2021/09/18 13:59:56;;;;;;;;;;;22.80;47.10;;;;;;8397214;28;19920;-52
2021/09/18 14:03:57;;;;;;;;;;;22.80;47.20;;;;;;8397031;28;19977;-50
2021/09/18 14:07:57;;;;;;;;;;;22.80;47.10;;;;;;8396528;28;20296;-50
2021/09/18 14:11:58;;;;;;;;;;;22.80;47.20;;;;;;8397730;28;19920;-51
2021/09/18 14:15:58;;;;;;;;;;;22.80;47.20;;;;;;8397020;28;19958;-49
2021/09/18 14:19:58;;;;;;;;;;;22.80;47.20;;;;;;8396642;28;19990;-48
2021/09/18 14:23:59;;;;;;;;;;;22.80;47.20;;;;;;8395713;28;20327;-50
2021/09/18 14:27:59;;;;;;;;;;;22.80;47.20;;;;;;8395925;28;19963;-50
2021/09/18 14:32:01;;;;;;;;;;;22.80;47.20;;;;;;8397066;28;20000;-49
2021/09/18 14:36:02;;;;;;;;;;;22.80;47.20;;;;;;8395970;28;19924;-49
2021/09/18 14:40:03;;;;;;;;;;;22.80;47.10;;;;;;8395204;28;20265;-52
2021/09/18 14:44:04;;;;;;;;;;;22.80;47.20;;;;;;8396092;28;20069;-49
2021/09/18 14:48:04;;;;;;;;;;;22.80;47.10;;;;;;8396680;28;19916;-48
2021/09/18 14:52:05;;;;;;;;;;;22.90;47.20;;;;;;8395001;28;19943;-48
2021/09/18 14:56:05;;;;;;;;;;;22.80;47.10;;;;;;8396234;28;19943;-48
2021/09/18 15:00:07;;;;;;;;;;;22.90;47.20;;;;;;8396350;28;20377;-52
2021/09/18 15:04:08;;;;;;;;;;;22.90;47.10;;;;;;8396448;28;19947;-51
2021/09/18 15:08:08;;;;;;;;;;;22.90;47.20;;;;;;8395475;28;19943;-48
2021/09/18 15:12:09;;;;;;;;;;;22.90;47.20;;;;;;8395918;28;20335;-48
2021/09/18 15:16:09;;;;;;;;;;;22.90;47.10;;;;;;8395397;28;19951;-48
2021/09/18 15:20:10;;;;;;;;;;;22.90;47.10;;;;;;8396082;28;19917;-48
2021/09/18 15:24:11;;;;;;;;;;;22.90;47.10;;;;;;8396361;28;19924;-51
2021/09/18 15:28:11;;;;;;;;;;;22.90;47.00;;;;;;8395375;28;19912;-48
2021/09/18 15:32:12;;;;;;;;;;;22.90;47.10;;;;;;8395526;28;19956;-48
2021/09/18 15:36:12;;;;;;;;;;;22.90;47.10;;;;;;8395518;28;19912;-48
2021/09/18 15:40:13;;;;;;;;;;;22.90;47.10;;;;;;8395795;28;20428;-51
2021/09/18 15:44:14;;;;;;;;;;;22.90;47.10;;;;;;8395210;28;19924;-49
2021/09/18 15:48:15;;;;;;;;;;;22.90;47.10;;;;;;8395207;28;20365;-48
2021/09/18 15:52:15;;;;;;;;;;;22.90;47.10;;;;;;8399129;28;19987;-50
2021/09/18 15:56:16;;;;;;;;;;;22.90;47.10;;;;;;8400696;28;20365;-51
2021/09/18 16:00:16;;;;;;;;;;;22.90;47.10;;;;;;8401306;28;19917;-49
2021/09/18 16:04:17;;;;;;;;;;;22.90;47.10;;;;;;8399900;28;19928;-50
2021/09/18 16:08:17;;;;;;;;;;;22.90;47.10;;;;;;8400021;28;19916;-54
2021/09/18 16:12:18;;;;;;;;;;;22.90;47.20;;;;;;8400626;28;19924;-51
2021/09/18 16:16:18;;;;;;;;;;;22.90;47.10;;;;;;8400689;28;20007;-49
2021/09/18 16:20:19;;;;;;;;;;;22.90;47.10;;;;;;8400436;28;20369;-48
2021/09/18 16:24:19;;;;;;;;;;;22.90;47.10;;;;;;8400102;28;19951;-47
2021/09/18 16:28:20;;;;;;;;;;;22.90;47.10;;;;;;8399531;28;19921;-48
2021/09/18 16:32:20;;;;;;;;;;;22.90;47.10;;;;;;8400926;28;19958;-48
2021/09/18 16:36:20;;;;;;;;;;;22.90;47.10;;;;;;8399173;28;20370;-48
2021/09/18 16:40:21;;;;;;;;;;;22.90;47.10;;;;;;8399003;28;20347;-48
2021/09/18 16:44:21;;;;;;;;;;;22.90;47.10;;;;;;8398568;28;20019;-47
2021/09/18 16:48:22;;;;;;;;;;;22.90;47.10;;;;;;8399237;28;19913;-48
2021/09/18 16:52:27;;;;;;;;;;;22.90;47.10;;;;;;8398054;28;19920;-48
2021/09/18 16:56:28;;;;;;;;;;;22.90;47.10;;;;;;8398730;28;20300;-50
2021/09/18 17:00:28;;;;;;;;;;;22.90;47.10;;;;;;8398469;28;19924;-49
2021/09/18 17:04:28;;;;;;;;;;;22.90;47.10;;;;;;8398287;28;19995;-48
2021/09/18 17:08:29;;;;;;;;;;;22.90;47.10;;;;;;8399242;28;19913;-49
2021/09/18 17:12:29;;;;;;;;;;;22.90;47.10;;;;;;8398507;28;20425;-48
2021/09/18 17:16:30;;;;;;;;;;;22.80;47.10;;;;;;8397899;28;20407;-51
2021/09/18 17:20:31;;;;;;;;;;;22.90;47.70;;;;;;8398173;28;19917;-48
2021/09/18 17:24:31;;;;;;;;;;;22.80;47.10;;;;;;8398917;28;20007;-49
2021/09/18 17:28:32;;;;;;;;;;;22.80;47.10;;;;;;8397816;28;19916;-47
2021/09/18 17:32:33;;;;;;;;;;;22.80;47.50;;;;;;8397896;28;19917;-49
2021/09/18 17:36:33;;;;;;;;;;;22.80;47.10;;;;;;8397837;28;20471;-48
2021/09/18 17:40:34;;;;;;;;;;;22.80;47.20;;;;;;8397248;28;19924;-49
2021/09/18 17:44:34;;;;;;;;;;;22.80;47.20;;;;;;8398526;28;19920;-48
2021/09/18 17:48:35;;;;;;;;;;;22.80;47.20;;;;;;8397496;28;20007;-49
2021/09/18 17:52:35;;;;;;;;;;;22.80;47.20;;;;;;8397022;28;19964;-50
2021/09/18 17:56:36;;;;;;;;;;;22.80;47.30;;;;;;8397216;28;19921;-50
2021/09/18 18:00:36;;;;;;;;;;;22.80;47.30;;;;;;8397888;28;19912;-49
2021/09/18 18:04:37;;;;;;;;;;;22.80;47.30;;;;;;8396442;28;20395;-49
2021/09/18 18:08:37;;;;;;;;;;;22.80;47.30;;;;;;8396936;28;19933;-49
2021/09/18 18:12:38;;;;;;;;;;;22.80;47.30;;;;;;8396293;28;20380;-48
2021/09/18 18:16:38;;;;;;;;;;;22.80;47.30;;;;;;8397069;28;19958;-48
2021/09/18 18:20:39;;;;;;;;;;;22.80;47.30;;;;;;8397113;28;19913;-48
2021/09/18 18:24:39;;;;;;;;;;;22.80;47.30;;;;;;8396588;28;19928;-49
2021/09/18 18:28:41;;;;;;;;;;;22.80;47.30;;;;;;8396121;28;19920;-48
2021/09/18 18:32:41;;;;;;;;;;;22.80;47.30;;;;;;8396690;28;19924;-49
2021/09/18 18:36:42;;;;;;;;;;;22.80;47.30;;;;;;8397283;28;19913;-49
2021/09/18 18:40:42;;;;;;;;;;;22.80;47.30;;;;;;8396227;28;19924;-48
2021/09/18 18:44:43;;;;;;;;;;;22.70;47.30;;;;;;8396376;28;19963;-50
2021/09/18 18:48:43;;;;;;;;;;;22.80;47.30;;;;;;8396117;28;20013;-48
2021/09/18 18:52:44;;;;;;;;;;;22.70;47.30;;;;;;8396337;28;20452;-48
2021/09/18 18:56:44;;;;;;;;;;;22.70;47.30;;;;;;8395893;28;20262;-49
2021/09/18 19:00:46;;;;;;;;;;;22.80;47.30;;;;;;8395849;28;19924;-50
2021/09/18 19:04:46;;;;;;;;;;;22.70;47.30;;;;;;8395757;28;19935;-48
2021/09/18 19:08:47;;;;;;;;;;;22.70;47.30;;;;;;8394547;28;19932;-49
2021/09/18 19:12:48;;;;;;;;;;;22.70;47.30;;;;;;8396541;28;19916;-48
2021/09/18 19:16:48;;;;;;;;;;;22.70;47.30;;;;;;8395214;28;19916;-49
2021/09/18 19:20:49;;;;;;;;;;;22.70;47.30;;;;;;8395687;28;19913;-48
2021/09/18 19:24:50;;;;;;;;;;;22.70;47.30;;;;;;8398393;28;20365;-48
2021/09/18 19:28:52;;;;;;;;;;;22.70;47.30;;;;;;8402242;28;19912;-49
2021/09/18 19:32:52;;;;;;;;;;;22.70;47.30;;;;;;8401729;28;19921;-48
2021/09/18 19:36:53;;;;;;;;;;;22.70;47.30;;;;;;8401617;28;19957;-48
2021/09/18 19:40:53;;;;;;;;;;;22.70;47.30;;;;;;8400920;28;19948;-48
2021/09/18 19:44:54;;;;;;;;;;;22.70;47.30;;;;;;8402240;28;19966;-48
2021/09/18 19:48:54;;;;;;;;;;;22.70;47.30;;;;;;8401177;28;19923;-48
2021/09/18 19:52:55;;;;;;;;;;;22.70;47.30;;;;;;8400903;28;19917;-48
2021/09/18 19:56:55;;;;;;;;;;;22.70;47.30;;;;;;8401542;28;19924;-48
2021/09/18 20:00:56;;;;;;;;;;;22.70;47.30;;;;;;8400935;28;19916;-47
2021/09/18 20:04:56;;;;;;;;;;;22.70;47.30;;;;;;8401074;28;20454;-49
2021/09/18 20:08:57;;;;;;;;;;;22.70;47.30;;;;;;8400770;28;20329;-49
2021/09/18 20:13:00;;;;;;;;;;;22.60;47.20;;;;;;8400753;28;20280;-48
2021/09/18 20:17:00;;;;;;;;;;;22.60;47.20;;;;;;8400205;28;19917;-49
2021/09/18 20:21:02;;;;;;;;;;;22.60;47.20;;;;;;8401084;28;19913;-48
2021/09/18 20:25:02;;;;;;;;;;;22.70;47.30;;;;;;8399917;28;19925;-50
2021/09/18 20:29:03;;;;;;;;;;;22.70;47.30;;;;;;8399864;28;20375;-48
2021/09/18 20:33:04;;;;;;;;;;;22.60;47.20;;;;;;8399996;28;20388;-49
2021/09/18 20:37:04;;;;;;;;;;;22.60;47.20;;;;;;8398784;28;19935;-49
2021/09/18 20:41:05;;;;;;;;;;;22.60;47.20;;;;;;8400009;28;19916;-48
2021/09/18 20:45:06;;;;;;;;;;;22.60;47.20;;;;;;8399378;28;20377;-49
2021/09/18 20:49:06;;;;;;;;;;;22.60;47.70;;;;;;8398996;28;19920;-49
2021/09/18 20:53:07;;;;;;;;;;;22.60;47.20;;;;;;8399449;28;19924;-48
2021/09/18 20:57:07;;;;;;;;;;;22.60;47.20;;;;;;8400152;28;19920;-49
2021/09/18 21:05:27;;;;;;;;;;;22.60;47.20;;;;;;8399166;28;19967;-48
2021/09/18 21:09:28;;;;;;;;;;;22.60;47.20;;;;;;8399145;28;19924;-48
2021/09/18 21:13:30;;;;;;;;;;;22.60;47.20;;;;;;8398550;28;19916;-50
2021/09/18 21:17:30;;;;;;;;;;;22.60;47.20;;;;;;8399279;28;19920;-46
2021/09/18 21:21:31;;;;;;;;;;;22.50;47.10;;;;;;8398126;28;19948;-47
2021/09/18 21:25:34;;;;;;;;;;;22.50;47.10;;;;;;8397838;28;20345;-49
2021/09/18 21:29:34;;;;;;;;;;;22.50;47.10;;;;;;8398168;28;19917;-47
2021/09/18 21:33:35;;;;;;;;;;;22.50;47.10;;;;;;8398751;28;19970;-47
2021/09/18 21:37:35;;;;;;;;;;;22.50;47.10;;;;;;8397490;28;20369;-48
2021/09/18 21:41:36;;;;;;;;;;;22.50;47.10;;;;;;8397573;28;20422;-48
2021/09/18 21:45:36;;;;;;;;;;;22.50;47.10;;;;;;8397739;28;20373;-47
2021/09/18 21:49:37;;;;;;;;;;;22.50;47.10;;;;;;8397869;28;20395;-49
2021/09/18 21:53:37;;;;;;;;;;;22.50;47.10;;;;;;8397288;28;19927;-47
2021/09/18 21:57:38;;;;;;;;;;;22.50;47.10;;;;;;8397246;28;19924;-47
2021/09/18 22:01:38;;;;;;;;;;;22.50;47.10;;;;;;8395794;28;20308;-48
2021/09/18 22:05:39;;;;;;;;;;;22.50;47.10;;;;;;8395696;28;19916;-49
2021/09/18 22:09:39;;;;;;;;;;;22.50;47.10;;;;;;8364954;28;20019;-49
2021/09/18 22:13:39;;;;;;;;;;;22.40;47.10;;;;;;8363351;28;19921;-49
2021/09/18 22:17:41;;;;;;;;;;;22.50;47.10;;;;;;8363623;28;19924;-51
2021/09/18 22:21:41;;;;;;;;;;;22.40;47.10;;;;;;8363555;28;19947;-49
2021/09/18 22:25:41;;;;;;;;;;;22.40;47.10;;;;;;8363753;28;19967;-49
2021/09/18 22:29:42;;;;;;;;;;;22.40;47.10;;;;;;8363442;28;19917;-49
2021/09/18 22:33:42;;;;;;;;;;;22.40;47.00;;;;;;8363455;28;19940;-49
2021/09/18 22:37:43;;;;;;;;;;;22.40;47.00;;;;;;8362880;28;19917;-50
2021/09/18 22:41:43;;;;;;;;;;;22.40;47.00;;;;;;8363961;28;20503;-50
2021/09/18 22:45:44;;;;;;;;;;;22.40;47.10;;;;;;8363122;28;19952;-50
2021/09/18 22:49:44;;;;;;;;;;;22.40;47.10;;;;;;8362616;28;19917;-50
2021/09/18 22:53:45;;;;;;;;;;;22.40;47.10;;;;;;8362884;28;19971;-50
2021/09/18 22:57:47;;;;;;;;;;;22.40;47.10;;;;;;8363022;28;19913;-49
2021/09/18 23:01:48;;;;;;;;;;;22.40;47.10;;;;;;8369257;28;20031;-50
2021/09/18 23:05:48;;;;;;;;;;;22.30;47.00;;;;;;8369369;28;19917;-48
2021/09/18 23:09:49;;;;;;;;;;;22.40;47.10;;;;;;8369749;28;20323;-49
2021/09/18 23:13:50;;;;;;;;;;;22.30;47.00;;;;;;8368763;28;20357;-49
2021/09/18 23:17:50;;;;;;;;;;;22.30;47.10;;;;;;8370171;28;19913;-49
2021/09/18 23:21:51;;;;;;;;;;;22.30;47.00;;;;;;8368753;28;20258;-50
2021/09/18 23:25:52;;;;;;;;;;;22.30;47.00;;;;;;8368300;28;20373;-49
2021/09/18 23:29:53;;;;;;;;;;;22.30;47.10;;;;;;8369011;28;19990;-49